createdAt,value
2018-09-13T00:00:08.119Z,12.43
2018-09-13T00:02:38.052Z,10.80
2018-09-13T00:05:07.186Z,13.07
2018-09-13T00:07:36.217Z,10.90
2018-09-13T00:10:05.992Z,11.50
2018-09-13T00:12:34.797Z,13.23
2018-09-13T00:15:04.412Z,15.83
2018-09-13T00:17:33.235Z,9.27
2018-09-13T00:20:02.021Z,11.63
2018-09-13T00:22:30.848Z,8.47
2018-09-13T00:24:59.567Z,13.43
2018-09-13T00:27:28.451Z,8.93
2018-09-13T00:29:57.451Z,13.70
2018-09-13T00:32:26.798Z,9.90
2018-09-13T00:34:55.698Z,15.07
2018-09-13T00:37:25.295Z,10.83
2018-09-13T00:39:54.708Z,12.50
2018-09-13T00:42:24.127Z,12.77
2018-09-13T00:44:52.915Z,9.07
2018-09-13T00:47:22.076Z,9.83
2018-09-13T00:49:51.177Z,12.50
2018-09-13T00:52:20.704Z,10.37
2018-09-13T00:54:49.923Z,8.83
2018-09-13T00:57:19.402Z,10.97
2018-09-13T00:59:48.857Z,9.70
2018-09-13T01:02:18.231Z,9.37
2018-09-13T01:04:46.972Z,7.10
2018-09-13T01:07:15.836Z,9.90
2018-09-13T01:09:45.647Z,7.23
2018-09-13T01:12:15.387Z,6.50
2018-09-13T01:14:44.632Z,8.73
2018-09-13T01:17:13.412Z,9.83
2018-09-13T01:19:42.164Z,12.33
2018-09-13T01:22:11.024Z,8.47
2018-09-13T01:24:39.768Z,10.90
2018-09-13T01:27:08.856Z,13.30
2018-09-13T01:29:37.825Z,8.30
2018-09-13T01:32:07.864Z,7.97
2018-09-13T01:34:37.970Z,12.20
2018-09-13T01:37:07.643Z,9.67
2018-09-13T01:39:36.679Z,5.10
2018-09-13T01:42:07.640Z,8.17
2018-09-13T01:44:37.854Z,8.03
2018-09-13T01:47:08.124Z,11.10
2018-09-13T01:49:37.051Z,13.17
2018-09-13T01:52:06.479Z,10.10
2018-09-13T01:54:35.952Z,7.00
2018-09-13T01:57:05.569Z,8.10
2018-09-13T01:59:34.899Z,5.30
2018-09-13T02:02:06.040Z,7.23
2018-09-13T02:04:35.260Z,9.23
2018-09-13T02:07:04.101Z,9.03
2018-09-13T02:09:33.548Z,7.37
2018-09-13T02:12:02.340Z,11.83
2018-09-13T02:14:31.824Z,12.83
2018-09-13T02:17:00.591Z,6.97
2018-09-13T02:19:29.818Z,9.80
2018-09-13T02:21:58.591Z,9.10
2018-09-13T02:24:27.400Z,6.47
2018-09-13T02:26:56.250Z,10.47
2018-09-13T02:29:25.550Z,5.33
2018-09-13T02:31:55.211Z,6.20
2018-09-13T02:34:24.668Z,8.30
2018-09-13T02:36:54.350Z,6.77
2018-09-13T02:39:23.127Z,9.80
2018-09-13T02:41:53.132Z,7.97
2018-09-13T02:44:22.003Z,10.97
2018-09-13T02:46:50.768Z,8.80
2018-09-13T02:49:19.697Z,7.90
2018-09-13T02:51:49.394Z,8.63
2018-09-13T02:54:18.139Z,10.47
2018-09-13T02:56:47.694Z,7.03
2018-09-13T02:59:17.172Z,5.63
2018-09-13T03:01:46.675Z,9.83
2018-09-13T03:04:15.447Z,10.03
2018-09-13T03:06:44.199Z,8.40
2018-09-13T03:09:14.080Z,7.30
2018-09-13T03:11:44.070Z,9.13
2018-09-13T03:14:13.643Z,6.77
2018-09-13T03:16:42.627Z,8.57
2018-09-13T03:19:11.485Z,8.23
2018-09-13T03:21:40.467Z,8.87
2018-09-13T03:24:09.234Z,13.33
2018-09-13T03:26:38.279Z,7.43
2018-09-13T03:29:08.006Z,9.30
2018-09-13T03:31:38.844Z,7.03
2018-09-13T03:34:08.456Z,7.73
2018-09-13T03:36:37.825Z,11.23
2018-09-13T03:39:10.026Z,10.07
2018-09-13T03:41:39.599Z,11.20
2018-09-13T03:44:08.466Z,10.00
2018-09-13T03:46:38.003Z,9.30
2018-09-13T03:49:07.003Z,9.83
2018-09-13T03:51:36.719Z,5.90
2018-09-13T03:54:06.240Z,7.97
2018-09-13T03:56:35.970Z,10.20
2018-09-13T03:59:05.882Z,7.50
2018-09-13T04:01:35.751Z,9.07
2018-09-13T04:04:04.827Z,12.83
2018-09-13T04:06:34.098Z,9.07
2018-09-13T04:09:04.383Z,12.17
2018-09-13T04:11:33.180Z,7.53
2018-09-13T04:14:02.765Z,6.80
2018-09-13T04:16:31.778Z,9.53
2018-09-13T04:19:00.586Z,11.77
2018-09-13T04:21:29.745Z,10.53
2018-09-13T04:23:58.673Z,10.70
2018-09-13T04:26:28.593Z,6.13
2018-09-13T04:28:57.325Z,7.43
2018-09-13T04:31:26.849Z,10.20
2018-09-13T04:33:56.165Z,10.97
2018-09-13T04:36:24.923Z,7.60
2018-09-13T04:38:54.604Z,7.00
2018-09-13T04:41:23.887Z,11.07
2018-09-13T04:43:52.829Z,8.63
2018-09-13T04:46:21.591Z,11.80
2018-09-13T04:48:50.358Z,10.37
2018-09-13T04:51:19.683Z,11.33
2018-09-13T04:53:49.110Z,8.50
2018-09-13T04:56:19.128Z,8.27
2018-09-13T04:58:48.556Z,6.77
2018-09-13T05:01:17.916Z,9.37
2018-09-13T05:03:46.677Z,13.50
2018-09-13T05:06:15.457Z,11.73
2018-09-13T05:08:44.255Z,6.77
2018-09-13T05:11:13.260Z,11.03
2018-09-13T05:13:42.951Z,8.03
2018-09-13T05:16:11.750Z,8.57
2018-09-13T05:18:40.515Z,7.47
2018-09-13T05:21:09.316Z,10.03
2018-09-13T05:23:38.931Z,10.43
2018-09-13T05:26:09.106Z,11.83
2018-09-13T05:28:38.707Z,10.27
2018-09-13T05:31:08.964Z,7.23
2018-09-13T05:33:38.675Z,14.60
2018-09-13T05:36:07.947Z,7.63
2018-09-13T05:38:38.067Z,10.03
2018-09-13T05:41:07.220Z,11.67
2018-09-13T05:43:37.206Z,10.27
2018-09-13T05:46:06.092Z,12.13
2018-09-13T05:48:35.242Z,9.07
2018-09-13T05:51:04.104Z,5.67
2018-09-13T05:53:33.787Z,10.13
2018-09-13T05:56:03.695Z,10.00
2018-09-13T05:58:33.129Z,8.53
2018-09-13T06:01:02.755Z,8.27
2018-09-13T06:03:32.590Z,6.30
2018-09-13T06:06:01.897Z,7.03
2018-09-13T06:08:31.387Z,8.60
2018-09-13T06:11:00.195Z,8.37
2018-09-13T06:13:29.568Z,9.77
2018-09-13T06:15:58.316Z,8.63
2018-09-13T06:18:27.098Z,5.57
2018-09-13T06:20:55.932Z,10.97
2018-09-13T06:23:26.041Z,8.00
2018-09-13T06:25:54.823Z,8.23
2018-09-13T06:28:23.819Z,8.83
2018-09-13T06:30:52.807Z,5.90
2018-09-13T06:33:22.659Z,7.97
2018-09-13T06:35:51.401Z,8.70
2018-09-13T06:38:21.298Z,7.67
2018-09-13T06:40:50.036Z,9.83
2018-09-13T06:43:19.610Z,9.87
2018-09-13T06:45:48.367Z,5.47
2018-09-13T06:48:17.243Z,6.60
2018-09-13T06:50:46.039Z,8.43
2018-09-13T06:53:15.972Z,10.80
2018-09-13T06:55:45.244Z,10.47
2018-09-13T06:58:14.624Z,7.60
2018-09-13T07:00:44.060Z,5.47
2018-09-13T07:03:13.439Z,6.73
2018-09-13T07:05:42.187Z,7.10
2018-09-13T07:08:10.924Z,9.80
2018-09-13T07:10:39.816Z,7.70
2018-09-13T07:13:09.317Z,6.87
2018-09-13T07:15:38.131Z,9.90
2018-09-13T07:18:08.195Z,3.90
2018-09-13T07:20:38.519Z,6.67
2018-09-13T07:23:07.827Z,4.90
2018-09-13T07:25:37.416Z,8.27
2018-09-13T07:28:06.800Z,7.20
2018-09-13T07:30:35.829Z,8.00
2018-09-13T07:33:05.613Z,4.60
2018-09-13T07:35:34.657Z,7.63
2018-09-13T07:38:05.084Z,8.07
2018-09-13T07:40:33.847Z,7.13
2018-09-13T07:43:03.364Z,7.17
2018-09-13T07:45:32.098Z,5.60
2018-09-13T07:48:00.816Z,7.23
2018-09-13T07:50:29.752Z,5.60
2018-09-13T07:52:59.192Z,4.30
2018-09-13T07:55:28.655Z,8.27
2018-09-13T07:57:58.624Z,8.60
2018-09-13T08:00:27.964Z,6.63
2018-09-13T08:02:57.459Z,5.83
2018-09-13T08:05:26.231Z,7.73
2018-09-13T08:07:55.004Z,6.03
2018-09-13T08:10:23.821Z,6.57
2018-09-13T08:12:53.575Z,4.03
2018-09-13T08:15:22.514Z,8.33
2018-09-13T08:17:51.726Z,5.93
2018-09-13T08:20:20.507Z,6.50
2018-09-13T08:22:49.286Z,3.97
2018-09-13T08:25:18.140Z,7.07
2018-09-13T08:27:46.883Z,4.30
2018-09-13T08:30:16.257Z,5.17
2018-09-13T08:32:45.723Z,6.30
2018-09-13T08:35:14.558Z,5.40
2018-09-13T08:37:43.846Z,5.63
2018-09-13T08:40:12.650Z,5.53
2018-09-13T08:42:42.190Z,5.80
2018-09-13T08:45:10.974Z,6.90
2018-09-13T08:47:39.787Z,4.20
2018-09-13T08:50:09.247Z,8.70
2018-09-13T08:52:38.972Z,4.63
2018-09-13T08:55:10.468Z,6.10
2018-09-13T08:57:40.422Z,5.20
2018-09-13T09:00:12.004Z,6.37
2018-09-13T09:02:42.022Z,5.17
2018-09-13T09:05:10.787Z,4.50
2018-09-13T09:07:40.115Z,3.53
2018-09-13T09:10:09.060Z,5.37
2018-09-13T09:12:38.472Z,4.30
2018-09-13T09:15:08.835Z,6.60
2018-09-13T09:17:38.615Z,4.13
2018-09-13T09:20:08.689Z,5.40
2018-09-13T09:22:38.323Z,4.30
2018-09-13T09:25:07.851Z,3.27
2018-09-13T09:27:37.430Z,4.80
2018-09-13T09:30:07.443Z,4.47
2018-09-13T09:32:37.277Z,5.53
2018-09-13T09:35:06.668Z,4.70
2018-09-13T09:37:36.347Z,7.60
2018-09-13T09:40:05.406Z,3.40
2018-09-13T09:42:34.820Z,3.23
2018-09-13T09:45:03.595Z,4.13
2018-09-13T09:47:32.419Z,5.00
2018-09-13T09:50:01.280Z,7.13
2018-09-13T09:52:31.048Z,6.77
2018-09-13T09:55:00.428Z,4.60
2018-09-13T09:57:29.924Z,5.33
2018-09-13T09:59:59.472Z,5.27
2018-09-13T10:02:28.954Z,2.37
2018-09-13T10:04:57.708Z,3.73
2018-09-13T10:07:26.609Z,6.83
2018-09-13T10:09:55.527Z,5.80
2018-09-13T10:12:24.905Z,3.97
2018-09-13T10:14:59.924Z,3.93
2018-09-13T10:17:34.077Z,6.60
2018-09-13T10:20:07.987Z,4.63
2018-09-13T10:22:41.915Z,5.60
2018-09-13T10:26:16.187Z,6.63
2018-09-13T10:28:50.105Z,5.20
2018-09-13T10:31:25.272Z,4.57
2018-09-13T10:34:00.012Z,3.73
2018-09-13T10:36:33.996Z,4.73
2018-09-13T10:39:08.417Z,3.00
2018-09-13T10:41:44.790Z,6.37
2018-09-13T10:44:18.749Z,4.77
2018-09-13T10:46:51.707Z,4.47
2018-09-13T10:49:25.518Z,6.47
2018-09-13T10:52:01.014Z,6.53
2018-09-13T10:54:34.197Z,3.27
2018-09-13T10:57:09.621Z,3.10
2018-09-13T10:59:39.448Z,5.60
2018-09-13T11:02:08.836Z,8.23
2018-09-13T11:04:38.303Z,3.20
2018-09-13T11:07:08.900Z,5.07
2018-09-13T11:09:39.451Z,5.10
2018-09-13T11:12:09.311Z,6.13
2018-09-13T11:14:47.079Z,4.30
2018-09-13T11:17:15.904Z,3.13
2018-09-13T11:19:44.745Z,4.13
2018-09-13T11:22:13.539Z,5.17
2018-09-13T11:24:42.438Z,4.87
2018-09-13T11:27:11.301Z,8.03
2018-09-13T11:29:40.180Z,3.50
2018-09-13T11:32:09.853Z,5.03
2018-09-13T11:34:38.972Z,5.20
2018-09-13T11:37:09.296Z,4.70
2018-09-13T11:39:39.184Z,4.57
2018-09-13T11:42:09.637Z,5.17
2018-09-13T11:44:38.912Z,4.90
2018-09-13T11:47:09.036Z,3.67
2018-09-13T11:49:38.774Z,4.50
2018-09-13T11:52:08.629Z,4.17
2018-09-13T11:54:38.467Z,5.07
2018-09-13T11:57:08.852Z,4.57
2018-09-13T11:59:38.587Z,2.73
2018-09-13T12:02:08.808Z,3.33
2018-09-13T12:04:38.049Z,3.70
2018-09-13T12:07:07.256Z,5.13
2018-09-13T12:09:37.712Z,3.83
2018-09-13T12:12:07.447Z,5.43
2018-09-13T12:14:37.708Z,3.37
2018-09-13T12:17:07.004Z,6.73
2018-09-13T12:19:36.413Z,4.07
2018-09-13T12:22:05.729Z,5.77
2018-09-13T12:24:34.793Z,2.97
2018-09-13T12:27:03.752Z,3.43
2018-09-13T12:29:32.612Z,3.83
2018-09-13T12:32:02.205Z,5.67
2018-09-13T12:34:31.035Z,4.23
2018-09-13T12:37:01.088Z,6.13
2018-09-13T12:39:29.924Z,4.00
2018-09-13T12:41:59.581Z,2.47
2018-09-13T12:44:28.366Z,3.87
2018-09-13T12:46:57.179Z,1.97
2018-09-13T12:49:26.047Z,3.83
2018-09-13T12:51:55.783Z,5.20
2018-09-13T12:54:24.647Z,5.60
2018-09-13T12:56:54.087Z,3.30
2018-09-13T12:59:24.141Z,1.80
2018-09-13T13:01:53.702Z,4.30
2018-09-13T13:04:22.489Z,3.90
2018-09-13T13:06:51.939Z,2.67
2018-09-13T13:09:20.676Z,4.23
2018-09-13T13:11:49.422Z,5.20
2018-09-13T13:14:18.808Z,4.37
2018-09-13T13:16:47.701Z,3.43
2018-09-13T13:19:16.544Z,5.33
2018-09-13T13:21:45.367Z,5.10
2018-09-13T13:24:14.127Z,3.90
2018-09-13T13:26:42.993Z,2.63
2018-09-13T13:29:11.764Z,5.57
2018-09-13T13:31:41.484Z,5.27
2018-09-13T13:34:10.962Z,3.90
2018-09-13T13:36:39.774Z,6.13
2018-09-13T13:39:11.226Z,3.73
2018-09-13T13:41:40.855Z,4.37
2018-09-13T13:44:09.597Z,4.17
2018-09-13T13:46:38.564Z,3.87
2018-09-13T13:49:08.109Z,4.17
2018-09-13T13:51:38.463Z,4.97
2018-09-13T13:54:08.346Z,4.40
2018-09-13T13:56:38.344Z,5.27
2018-09-13T13:59:08.693Z,2.03
2018-09-13T14:01:39.346Z,5.30
2018-09-13T14:04:09.337Z,3.07
2018-09-13T14:06:38.450Z,5.70
2018-09-13T14:09:10.351Z,4.87
2018-09-13T14:11:39.116Z,7.53
2018-09-13T14:14:09.079Z,5.00
2018-09-13T14:16:38.939Z,5.80
2018-09-13T14:19:08.015Z,6.33
2018-09-13T14:21:37.408Z,2.73
2018-09-13T14:24:07.251Z,4.90
2018-09-13T14:26:36.343Z,4.33
2018-09-13T14:29:05.576Z,3.33
2018-09-13T14:31:35.448Z,3.00
2018-09-13T14:34:05.125Z,2.50
2018-09-13T14:36:33.887Z,2.37
2018-09-13T14:39:03.088Z,3.73
2018-09-13T14:41:32.311Z,3.80
2018-09-13T14:44:01.124Z,2.33
2018-09-13T14:46:29.961Z,3.03
2018-09-13T14:48:58.752Z,2.60
2018-09-13T14:51:27.531Z,1.70
2018-09-13T14:53:56.442Z,1.77
2018-09-13T14:56:26.475Z,1.63
2018-09-13T14:58:56.051Z,2.73
2018-09-13T15:01:25.523Z,1.93
2018-09-13T15:03:54.319Z,2.40
2018-09-13T15:06:23.083Z,2.77
2018-09-13T15:08:51.903Z,1.80
2018-09-13T15:11:20.763Z,1.63
2018-09-13T15:13:50.167Z,2.20
2018-09-13T15:16:18.957Z,2.87
2018-09-13T15:18:47.772Z,4.40
2018-09-13T15:21:16.584Z,2.73
2018-09-13T15:23:45.651Z,2.47
2018-09-13T15:26:14.542Z,3.23
2018-09-13T15:28:43.796Z,3.23
2018-09-13T15:31:13.259Z,4.20
2018-09-13T15:33:43.387Z,3.27
2018-09-13T15:36:12.175Z,2.00
2018-09-13T15:38:42.135Z,5.17
2018-09-13T15:41:11.754Z,2.87
2018-09-13T15:43:40.584Z,3.73
2018-09-13T15:46:09.410Z,3.63
2018-09-13T15:48:38.657Z,3.97
2018-09-13T15:51:08.022Z,4.23
2018-09-13T15:53:38.055Z,2.03
2018-09-13T15:56:38.747Z,3.83
2018-09-13T15:59:08.640Z,4.07
2018-09-13T16:01:38.514Z,4.17
2018-09-13T16:04:08.108Z,3.80
2018-09-13T16:06:37.268Z,3.53
2018-09-13T16:09:09.340Z,3.97
2018-09-13T16:11:38.578Z,4.83
2018-09-13T16:14:08.784Z,3.43
2018-09-13T16:16:38.630Z,3.03
2018-09-13T16:19:08.068Z,2.83
2018-09-13T16:21:37.364Z,3.13
2018-09-13T16:24:07.029Z,4.97
2018-09-13T16:26:36.580Z,3.57
2018-09-13T16:29:05.846Z,4.20
2018-09-13T16:31:36.057Z,4.03
2018-09-13T16:34:06.112Z,4.20
2018-09-13T16:36:36.313Z,3.27
2018-09-13T16:39:27.066Z,2.33
2018-09-13T16:42:01.614Z,6.47
2018-09-13T16:44:35.842Z,6.23
2018-09-13T16:47:09.854Z,3.53
2018-09-13T16:49:40.250Z,2.37
2018-09-13T16:52:09.928Z,2.70
2018-09-13T16:54:39.230Z,7.00
2018-09-13T16:57:08.961Z,2.53
2018-09-13T16:59:39.825Z,4.87
2018-09-13T17:02:09.276Z,3.20
2018-09-13T17:04:39.562Z,4.00
2018-09-13T17:07:09.884Z,2.47
2018-09-13T17:09:38.818Z,2.93
2018-09-13T17:12:08.815Z,2.13
2018-09-13T17:14:38.859Z,2.77
2018-09-13T17:17:07.972Z,3.57
2018-09-13T17:19:37.664Z,4.40
2018-09-13T17:22:07.567Z,4.03
2018-09-13T17:24:37.766Z,3.70
2018-09-13T17:27:07.020Z,2.43
2018-09-13T17:29:36.427Z,3.43
2018-09-13T17:32:07.187Z,3.23
2018-09-13T17:34:36.845Z,2.77
2018-09-13T17:37:08.054Z,7.53
2018-09-13T17:39:37.670Z,3.13
2018-09-13T17:42:07.915Z,3.33
2018-09-13T17:44:38.136Z,6.23
2018-09-13T17:47:07.339Z,5.80
2018-09-13T17:49:36.613Z,4.80
2018-09-13T17:52:06.044Z,5.07
2018-09-13T17:54:37.190Z,6.43
2018-09-13T17:57:07.817Z,4.97
2018-09-13T17:59:38.337Z,3.63
2018-09-13T18:02:08.750Z,3.07
2018-09-13T18:04:38.371Z,7.73
2018-09-13T18:07:38.100Z,5.53
2018-09-13T18:10:07.472Z,3.87
2018-09-13T18:12:39.430Z,2.70
2018-09-13T18:15:08.926Z,2.07
2018-09-13T18:17:39.344Z,3.90
2018-09-13T18:20:08.270Z,3.93
2018-09-13T18:22:38.231Z,4.23
2018-09-13T18:25:07.759Z,8.00
2018-09-13T18:27:37.375Z,3.67
2018-09-13T18:30:06.827Z,5.50
2018-09-13T18:32:37.394Z,6.40
2018-09-13T18:35:07.262Z,16.10
2018-09-13T18:37:37.177Z,5.40
2018-09-13T18:40:06.364Z,5.27
2018-09-13T18:42:35.941Z,7.03
2018-09-13T18:45:05.707Z,2.80
2018-09-13T18:47:34.774Z,3.60
2018-09-13T18:50:03.735Z,3.90
2018-09-13T18:52:33.157Z,2.77
2018-09-13T18:55:02.783Z,4.03
2018-09-13T18:57:32.277Z,4.07
2018-09-13T19:00:01.093Z,2.23
2018-09-13T19:02:30.747Z,4.70
2018-09-13T19:04:59.585Z,3.77
2018-09-13T19:07:28.431Z,3.17
2018-09-13T19:09:57.330Z,1.90
2018-09-13T19:12:26.714Z,2.90
2018-09-13T19:14:56.327Z,6.40
2018-09-13T19:17:25.253Z,3.87
2018-09-13T19:19:54.677Z,4.37
2018-09-13T19:22:23.500Z,4.37
2018-09-13T19:24:52.303Z,5.73
2018-09-13T19:27:21.256Z,4.57
2018-09-13T19:29:50.034Z,5.77
2018-09-13T19:32:19.892Z,4.53
2018-09-13T19:34:48.879Z,5.20
2018-09-13T19:37:18.310Z,3.90
2018-09-13T19:39:47.128Z,2.60
2018-09-13T19:42:18.536Z,6.30
2018-09-13T19:44:47.573Z,3.57
2018-09-13T19:47:16.428Z,7.40
2018-09-13T19:49:46.349Z,6.83
2018-09-13T19:52:15.132Z,2.93
2018-09-13T19:54:44.845Z,6.43
2018-09-13T19:57:14.486Z,4.73
2018-09-13T19:59:44.364Z,4.53
2018-09-13T20:02:13.715Z,3.33
2018-09-13T20:04:42.765Z,4.43
2018-09-13T20:07:11.597Z,4.57
2018-09-13T20:09:40.425Z,2.37
2018-09-13T20:12:10.076Z,3.33
2018-09-13T20:14:39.765Z,4.03
2018-09-13T20:17:08.596Z,3.83
2018-09-13T20:19:37.730Z,2.43
2018-09-13T20:22:09.254Z,4.33
2018-09-13T20:24:38.406Z,3.67
2018-09-13T20:27:07.896Z,3.20
2018-09-13T20:29:37.028Z,2.33
2018-09-13T20:32:07.214Z,2.67
2018-09-13T20:34:37.119Z,4.43
2018-09-13T20:37:07.886Z,3.83
2018-09-13T20:39:37.392Z,2.00
2018-09-13T20:42:07.674Z,3.63
2018-09-13T20:44:37.394Z,2.47
2018-09-13T20:47:07.923Z,5.80
2018-09-13T20:49:37.982Z,5.57
2018-09-13T20:52:07.647Z,6.10
2018-09-13T20:54:37.508Z,2.27
2018-09-13T20:57:07.601Z,3.77
2018-09-13T20:59:37.435Z,4.10
2018-09-13T21:02:07.512Z,4.47
2018-09-13T21:04:37.878Z,3.53
2018-09-13T21:07:07.654Z,2.20
2018-09-13T21:09:37.503Z,2.83
2018-09-13T21:12:08.116Z,1.97
2018-09-13T21:14:38.488Z,7.90
2018-09-13T21:17:07.996Z,7.50
2018-09-13T21:19:38.089Z,6.00
2018-09-13T21:22:08.692Z,6.80
2018-09-13T21:24:38.587Z,4.40
2018-09-13T21:27:08.266Z,4.20
2018-09-13T21:29:37.776Z,5.67
2018-09-13T21:32:08.074Z,3.23
2018-09-13T21:34:37.435Z,1.83
2018-09-13T21:37:07.902Z,5.10
2018-09-13T21:39:37.974Z,2.43
2018-09-13T21:42:08.052Z,1.90
2018-09-13T21:44:38.529Z,3.57
2018-09-13T21:47:07.887Z,3.10
2018-09-13T21:49:37.604Z,4.33
2018-09-13T21:52:07.119Z,4.20
2018-09-13T21:54:37.229Z,5.53
2018-09-13T21:57:07.653Z,5.53
2018-09-13T21:59:37.904Z,4.43
2018-09-13T22:02:08.094Z,2.83
2018-09-13T22:04:38.516Z,4.53
2018-09-13T22:07:08.313Z,3.17
2018-09-13T22:09:38.526Z,4.83
2018-09-13T22:12:08.150Z,4.20
2018-09-13T22:14:38.258Z,5.73
2018-09-13T22:17:07.742Z,1.83
2018-09-13T22:19:37.535Z,4.97
2018-09-13T22:22:07.486Z,4.43
2018-09-13T22:24:39.031Z,3.43
2018-09-13T22:27:08.507Z,2.83
2018-09-13T22:29:38.055Z,5.60
2018-09-13T22:32:08.550Z,2.50
2018-09-13T22:34:38.073Z,4.50
2018-09-13T22:37:08.538Z,3.83
2018-09-13T22:39:39.124Z,3.93
2018-09-13T22:42:09.376Z,3.80
2018-09-13T22:44:39.851Z,5.17
2018-09-13T22:47:09.449Z,2.93
2018-09-13T22:49:38.734Z,4.00
2018-09-13T22:52:08.612Z,2.90
2018-09-13T22:54:39.150Z,5.53
2018-09-13T22:57:09.394Z,3.83
2018-09-13T22:59:39.283Z,3.97
2018-09-13T23:02:09.833Z,2.57
2018-09-13T23:04:39.549Z,3.00
2018-09-13T23:07:09.051Z,6.07
2018-09-13T23:09:38.258Z,3.90
2018-09-13T23:12:08.275Z,4.63
2018-09-13T23:14:38.795Z,2.63
2018-09-13T23:17:07.964Z,4.97
2018-09-13T23:19:37.159Z,2.60
2018-09-13T23:22:07.443Z,2.77
2018-09-13T23:24:36.849Z,5.37
2018-09-13T23:27:06.816Z,5.17
2018-09-13T23:29:35.878Z,3.40
2018-09-13T23:32:06.489Z,3.53
2018-09-13T23:34:36.111Z,3.50
2018-09-13T23:37:06.235Z,5.23
2018-09-13T23:39:37.150Z,3.37
2018-09-13T23:42:06.605Z,4.13
2018-09-13T23:44:35.884Z,4.67
2018-09-13T23:47:04.780Z,3.03
2018-09-13T23:49:33.638Z,2.07
2018-09-13T23:52:02.427Z,3.07
2018-09-13T23:54:31.443Z,3.47
2018-09-13T23:57:00.817Z,6.37
2018-09-13T23:59:30.243Z,5.73
